createdAt,value
2018-12-05T00:02:20.878Z,102091.61
2018-12-05T00:04:46.850Z,102097.50
2018-12-05T00:07:12.769Z,102097.86
2018-12-05T00:09:38.730Z,102100.98
2018-12-05T00:12:04.704Z,102102.05
2018-12-05T00:14:30.723Z,102093.30
2018-12-05T00:16:56.707Z,102093.30
2018-12-05T00:19:22.718Z,102093.39
2018-12-05T00:21:48.705Z,102086.89
2018-12-05T00:24:14.683Z,102084.25
2018-12-05T00:26:40.661Z,102088.22
2018-12-05T00:29:06.616Z,102091.23
2018-12-05T00:31:32.573Z,102091.34
2018-12-05T00:33:58.602Z,102090.86
2018-12-05T00:36:24.551Z,102093.04
2018-12-05T00:38:50.503Z,102096.12
2018-12-05T00:41:16.466Z,102097.45
2018-12-05T00:43:42.479Z,102095.30
2018-12-05T00:46:08.529Z,102093.04
2018-12-05T00:48:34.525Z,102094.71
2018-12-05T00:51:00.542Z,102094.45
2018-12-05T00:53:26.503Z,102101.16
2018-12-05T00:55:52.461Z,102092.15
2018-12-05T00:58:18.431Z,102098.27
2018-12-05T01:00:44.407Z,102097.91
2018-12-05T01:03:10.358Z,102093.95
2018-12-05T01:05:36.370Z,102094.05
2018-12-05T01:08:02.325Z,102093.12
2018-12-05T01:10:28.310Z,102093.12
2018-12-05T01:12:54.367Z,102082.18
2018-12-05T01:15:20.449Z,102086.03
2018-12-05T01:17:46.547Z,102085.55
2018-12-05T01:20:12.499Z,102093.56
2018-12-05T01:22:38.446Z,102092.25
2018-12-05T01:25:04.436Z,102087.23
2018-12-05T01:27:30.399Z,102081.84
2018-12-05T01:29:56.459Z,102078.72
2018-12-05T01:32:22.778Z,102077.79
2018-12-05T01:34:48.733Z,102076.09
2018-12-05T01:37:14.748Z,102081.75
2018-12-05T01:39:40.693Z,102086.64
2018-12-05T01:42:06.718Z,102074.90
2018-12-05T01:44:32.661Z,102072.61
2018-12-05T01:46:58.626Z,102075.00
2018-12-05T01:49:24.586Z,102075.00
2018-12-05T01:51:50.559Z,102064.92
2018-12-05T01:54:16.545Z,102063.22
2018-12-05T01:56:42.569Z,102071.27
2018-12-05T01:59:08.522Z,102066.92
2018-12-05T02:01:34.483Z,102072.20
2018-12-05T02:04:00.612Z,102073.17
2018-12-05T02:06:26.566Z,102065.26
2018-12-05T02:08:52.526Z,102066.23
2018-12-05T02:11:18.482Z,102065.74
2018-12-05T02:13:44.511Z,102068.73
2018-12-05T02:16:10.462Z,102065.26
2018-12-05T02:18:36.525Z,102065.61
2018-12-05T02:21:02.476Z,102070.44
2018-12-05T02:23:28.431Z,102073.42
2018-12-05T02:25:54.417Z,102082.18
2018-12-05T02:28:20.381Z,102078.70
2018-12-05T02:30:46.345Z,102080.38
2018-12-05T02:33:12.301Z,102074.27
2018-12-05T02:35:38.291Z,102068.63
2018-12-05T02:38:04.244Z,102062.39
2018-12-05T02:40:30.192Z,102069.47
2018-12-05T02:42:56.154Z,102069.22
2018-12-05T02:45:22.107Z,102074.01
2018-12-05T02:47:48.077Z,102059.98
2018-12-05T02:50:14.040Z,102058.17
2018-12-05T02:52:40.090Z,102050.16
2018-12-05T02:55:06.133Z,102040.34
2018-12-05T02:57:32.110Z,102036.38
2018-12-05T02:59:58.099Z,102035.77
2018-12-05T03:02:24.137Z,102034.00
2018-12-05T03:04:50.237Z,102043.09
2018-12-05T03:07:16.210Z,102040.61
2018-12-05T03:09:42.181Z,102041.09
2018-12-05T03:12:08.227Z,102042.18
2018-12-05T03:14:34.189Z,102033.42
2018-12-05T03:17:00.143Z,102038.57
2018-12-05T03:19:26.095Z,102039.54
2018-12-05T03:21:52.144Z,102037.88
2018-12-05T03:24:18.092Z,102029.70
2018-12-05T03:26:44.059Z,102027.06
2018-12-05T03:29:10.029Z,102031.95
2018-12-05T03:31:35.975Z,102031.61
2018-12-05T03:34:01.939Z,102029.07
2018-12-05T03:36:27.981Z,102039.27
2018-12-05T03:38:54.052Z,102036.50
2018-12-05T03:41:19.990Z,102036.50
2018-12-05T03:43:45.981Z,102038.55
2018-12-05T03:46:11.956Z,102038.30
2018-12-05T03:48:37.912Z,102034.73
2018-12-05T03:51:03.890Z,102037.47
2018-12-05T03:53:29.855Z,102029.91
2018-12-05T03:55:55.808Z,102026.43
2018-12-05T03:58:21.877Z,102030.77
2018-12-05T04:00:47.842Z,102044.80
2018-12-05T04:03:13.820Z,102042.16
2018-12-05T04:05:39.958Z,102040.01
2018-12-05T04:08:05.913Z,102033.66
2018-12-05T04:10:31.865Z,102035.43
2018-12-05T04:12:57.843Z,102028.38
2018-12-05T04:15:23.790Z,102020.56
2018-12-05T04:17:49.746Z,102009.17
2018-12-05T04:20:15.814Z,102013.48
2018-12-05T04:22:41.778Z,102013.87
2018-12-05T04:25:07.770Z,102015.64
2018-12-05T04:27:33.842Z,102017.83
2018-12-05T04:30:00.872Z,102020.08
2018-12-05T04:32:26.932Z,102031.95
2018-12-05T04:34:52.881Z,102029.07
2018-12-05T04:37:18.947Z,102030.64
2018-12-05T04:39:44.902Z,102031.86
2018-12-05T04:42:10.860Z,102036.75
2018-12-05T04:44:36.834Z,102031.38
2018-12-05T04:47:02.873Z,102036.40
2018-12-05T04:49:28.895Z,102043.83
2018-12-05T04:51:54.855Z,102045.05
2018-12-05T04:54:20.852Z,102042.03
2018-12-05T04:56:46.898Z,102034.50
2018-12-05T04:59:12.946Z,102034.59
2018-12-05T05:01:38.907Z,102036.89
2018-12-05T05:04:04.850Z,102034.73
2018-12-05T05:06:30.896Z,102030.28
2018-12-05T05:08:56.843Z,102043.48
2018-12-05T05:11:22.800Z,102042.75
2018-12-05T05:13:48.786Z,102045.28
2018-12-05T05:16:14.857Z,102030.88
2018-12-05T05:18:41.042Z,102019.34
2018-12-05T05:21:07.058Z,102021.64
2018-12-05T05:23:33.018Z,102021.98
2018-12-05T05:25:58.965Z,102020.67
2018-12-05T05:28:24.923Z,102013.23
2018-12-05T05:30:50.970Z,102008.55
2018-12-05T05:33:16.917Z,102012.16
2018-12-05T05:35:42.870Z,102005.95
2018-12-05T05:38:08.830Z,102010.84
2018-12-05T05:40:34.786Z,102008.59
2018-12-05T05:43:00.785Z,102010.61
2018-12-05T05:45:26.735Z,102001.51
2018-12-05T05:47:52.683Z,102004.15
2018-12-05T05:50:18.699Z,101997.16
2018-12-05T05:52:44.655Z,101998.97
2018-12-05T05:55:10.629Z,101993.83
2018-12-05T05:57:36.651Z,101993.34
2018-12-05T06:00:02.609Z,101992.02
2018-12-05T06:02:28.626Z,101993.34
2018-12-05T06:04:54.585Z,101988.65
2018-12-05T06:07:20.528Z,101991.64
2018-12-05T06:09:46.511Z,101982.89
2018-12-05T06:12:12.542Z,101989.13
2018-12-05T06:14:38.558Z,101991.77
2018-12-05T06:17:04.607Z,101996.80
2018-12-05T06:19:30.567Z,101994.52
2018-12-05T06:21:56.517Z,101992.36
2018-12-05T06:24:22.502Z,101982.29
2018-12-05T06:26:48.449Z,101982.29
2018-12-05T06:29:14.412Z,101989.13
2018-12-05T06:31:40.375Z,101989.48
2018-12-05T06:34:06.343Z,101993.92
2018-12-05T06:36:32.323Z,101997.50
2018-12-05T06:38:59.471Z,101994.52
2018-12-05T06:41:25.538Z,101988.88
2018-12-05T06:43:51.519Z,101997.89
2018-12-05T06:46:17.471Z,101999.20
2018-12-05T06:48:43.454Z,102007.61
2018-12-05T06:51:09.455Z,102005.80
2018-12-05T06:53:35.681Z,102003.65
2018-12-05T06:56:01.771Z,101995.73
2018-12-05T06:58:27.725Z,101996.19
2018-12-05T07:00:53.716Z,102005.80
2018-12-05T07:03:19.653Z,102003.75
2018-12-05T07:05:45.642Z,102007.70
2018-12-05T07:08:11.599Z,102009.52
2018-12-05T07:10:37.605Z,102019.94
2018-12-05T07:13:04.958Z,102016.94
2018-12-05T07:15:31.023Z,102007.81
2018-12-05T07:17:56.965Z,102010.70
2018-12-05T07:20:22.927Z,102010.25
2018-12-05T07:22:48.935Z,102014.79
2018-12-05T07:25:15.966Z,102020.80
2018-12-05T07:27:42.010Z,102023.89
2018-12-05T07:30:07.965Z,102025.95
2018-12-05T07:32:33.934Z,102016.36
2018-12-05T07:34:59.903Z,102015.88
2018-12-05T07:37:25.858Z,102018.03
2018-12-05T07:39:51.815Z,102015.39
2018-12-05T07:42:17.827Z,102012.40
2018-12-05T07:44:43.799Z,102004.97
2018-12-05T07:47:09.754Z,101999.69
2018-12-05T07:49:35.715Z,102003.16
2018-12-05T07:52:01.668Z,102000.63
2018-12-05T07:54:27.625Z,102007.61
2018-12-05T07:56:54.481Z,101997.89
2018-12-05T07:59:20.491Z,101991.77
2018-12-05T08:01:46.434Z,101989.97
2018-12-05T08:04:12.398Z,101988.06
2018-12-05T08:06:38.352Z,101993.70
2018-12-05T08:09:04.314Z,101992.63
2018-12-05T08:11:30.271Z,101989.50
2018-12-05T08:13:56.216Z,101980.27
2018-12-05T08:16:22.288Z,101977.87
2018-12-05T08:18:48.239Z,101976.80
2018-12-05T08:21:14.227Z,101971.27
2018-12-05T08:23:40.199Z,101973.45
2018-12-05T08:26:06.174Z,101965.64
2018-12-05T08:28:32.174Z,101960.27
2018-12-05T08:30:58.122Z,101951.13
2018-12-05T08:33:24.098Z,101946.33
2018-12-05T08:35:50.050Z,101938.41
2018-12-05T08:38:16.016Z,101942.37
2018-12-05T08:40:41.989Z,101932.55
2018-12-05T08:43:07.950Z,101940.92
2018-12-05T08:45:33.933Z,101939.73
2018-12-05T08:48:00.058Z,101939.73
2018-12-05T08:50:26.040Z,101937.09
2018-12-05T08:52:52.014Z,101944.63
2018-12-05T08:55:17.987Z,101949.08
2018-12-05T08:57:43.971Z,101943.30
2018-12-05T09:00:09.903Z,101941.73
2018-12-05T09:02:35.880Z,101941.98
2018-12-05T09:05:01.935Z,101932.64
2018-12-05T09:07:27.919Z,101936.22
2018-12-05T09:09:53.902Z,101941.50
2018-12-05T09:12:20.051Z,101941.16
2018-12-05T09:14:46.009Z,101940.56
2018-12-05T09:17:11.974Z,101943.30
2018-12-05T09:19:37.930Z,101937.09
2018-12-05T09:22:03.881Z,101927.95
2018-12-05T09:24:29.865Z,101923.03
2018-12-05T09:26:55.843Z,101923.66
2018-12-05T09:29:21.800Z,101919.56
2018-12-05T09:31:47.782Z,101916.92
2018-12-05T09:34:13.740Z,101910.70
2018-12-05T09:36:39.733Z,101907.82
2018-12-05T09:39:05.683Z,101906.02
2018-12-05T09:41:31.705Z,101899.77
2018-12-05T09:43:57.672Z,101896.30
2018-12-05T09:46:23.717Z,101898.59
2018-12-05T09:48:49.678Z,101890.19
2018-12-05T09:51:15.658Z,101886.57
2018-12-05T09:53:41.618Z,101876.02
2018-12-05T09:56:07.574Z,101873.38
2018-12-05T09:58:33.565Z,101874.70
2018-12-05T10:00:59.530Z,101883.48
2018-12-05T10:03:25.487Z,101877.72
2018-12-05T10:05:51.452Z,101866.43
2018-12-05T10:08:17.464Z,101870.50
2018-12-05T10:10:43.476Z,101872.06
2018-12-05T10:13:09.429Z,101875.67
2018-12-05T10:15:35.386Z,101873.03
2018-12-05T10:18:01.371Z,101870.74
2018-12-05T10:20:27.328Z,101867.86
2018-12-05T10:22:53.315Z,101870.39
2018-12-05T10:25:19.266Z,101863.80
2018-12-05T10:27:46.330Z,101869.55
2018-12-05T10:30:12.283Z,101871.81
2018-12-05T10:32:38.238Z,101874.59
2018-12-05T10:35:04.212Z,101877.96
2018-12-05T10:37:30.167Z,101865.11
2018-12-05T10:39:56.129Z,101862.12
2018-12-05T10:42:22.073Z,101849.28
2018-12-05T10:44:48.038Z,101835.11
2018-12-05T10:47:13.999Z,101829.48
2018-12-05T10:49:39.972Z,101825.53
2018-12-05T10:52:05.952Z,101815.32
2018-12-05T10:54:31.899Z,101808.72
2018-12-05T10:56:57.890Z,101798.80
2018-12-05T10:59:23.842Z,101793.03
2018-12-05T11:01:49.797Z,101793.75
2018-12-05T11:04:15.752Z,101785.59
2018-12-05T11:06:41.704Z,101789.31
2018-12-05T11:09:07.667Z,101788.93
2018-12-05T11:11:33.625Z,101791.95
2018-12-05T11:13:59.579Z,101791.11
2018-12-05T11:16:25.546Z,101778.75
2018-12-05T11:18:51.512Z,101776.95
2018-12-05T11:21:17.470Z,101772.98
2018-12-05T11:23:43.450Z,101765.56
2018-12-05T11:26:09.405Z,101767.71
2018-12-05T11:28:35.369Z,101760.77
2018-12-05T11:31:01.322Z,101756.08
2018-12-05T11:33:27.285Z,101760.05
2018-12-05T11:35:53.248Z,101744.20
2018-12-05T11:38:19.221Z,101743.48
2018-12-05T11:40:45.335Z,101739.42
2018-12-05T11:43:11.311Z,101736.64
2018-12-05T11:45:37.258Z,101737.47
2018-12-05T11:48:03.259Z,101733.41
2018-12-05T11:50:29.201Z,101725.72
2018-12-05T11:52:55.169Z,101727.17
2018-12-05T11:55:21.137Z,101722.61
2018-12-05T11:57:47.105Z,101725.59
2018-12-05T12:00:13.082Z,101722.96
2018-12-05T12:02:39.100Z,101714.55
2018-12-05T12:05:05.081Z,101712.75
2018-12-05T12:07:31.050Z,101706.53
2018-12-05T12:09:57.008Z,101695.72
2018-12-05T12:12:22.954Z,101696.31
2018-12-05T12:14:48.925Z,101694.99
2018-12-05T12:17:14.975Z,101696.91
2018-12-05T12:19:40.928Z,101691.39
2018-12-05T12:22:06.878Z,101691.55
2018-12-05T12:24:34.962Z,101685.54
2018-12-05T12:27:00.831Z,101686.14
2018-12-05T12:29:26.827Z,101687.22
2018-12-05T12:31:52.766Z,101692.50
2018-12-05T12:34:18.735Z,101692.02
2018-12-05T12:36:44.707Z,101687.22
2018-12-05T12:39:10.782Z,101681.60
2018-12-05T12:41:36.746Z,101674.14
2018-12-05T12:44:02.727Z,101661.43
2018-12-05T12:46:28.673Z,101656.98
2018-12-05T12:48:54.642Z,101653.02
2018-12-05T12:51:20.624Z,101651.84
2018-12-05T12:53:46.644Z,101644.42
2018-12-05T12:56:12.659Z,101650.39
2018-12-05T12:58:38.686Z,101647.06
2018-12-05T13:01:04.719Z,101644.77
2018-12-05T13:03:30.747Z,101648.23
2018-12-05T13:05:56.725Z,101639.00
2018-12-05T13:08:22.670Z,101630.97
2018-12-05T13:10:48.666Z,101630.97
2018-12-05T13:13:14.641Z,101630.97
2018-12-05T13:15:40.686Z,101624.38
2018-12-05T13:18:06.633Z,101624.38
2018-12-05T13:20:32.592Z,101616.45
2018-12-05T13:22:58.565Z,101615.14
2018-12-05T13:25:24.542Z,101606.73
2018-12-05T13:27:50.518Z,101593.88
2018-12-05T13:30:16.491Z,101597.62
2018-12-05T13:32:42.437Z,101594.38
2018-12-05T13:35:08.410Z,101586.20
2018-12-05T13:37:34.375Z,101576.96
2018-12-05T13:40:00.330Z,101573.38
2018-12-05T13:42:26.307Z,101562.11
2018-12-05T13:44:52.271Z,101552.87
2018-12-05T13:47:18.229Z,101551.20
2018-12-05T13:49:44.208Z,101556.94
2018-12-05T13:52:10.316Z,101558.03
2018-12-05T13:54:36.303Z,101564.63
2018-12-05T13:57:02.281Z,101561.16
2018-12-05T13:59:28.287Z,101559.34
2018-12-05T14:01:54.251Z,101554.07
2018-12-05T14:04:20.217Z,101548.80
2018-12-05T14:06:46.165Z,101538.73
2018-12-05T14:09:12.119Z,101531.30
2018-12-05T14:11:38.078Z,101536.46
2018-12-05T14:14:04.114Z,101537.78
2018-12-05T14:16:30.078Z,101532.95
2018-12-05T14:18:56.060Z,101524.09
2018-12-05T14:21:22.014Z,101519.77
2018-12-05T14:23:47.966Z,101530.32
2018-12-05T14:26:13.919Z,101520.86
2018-12-05T14:28:39.902Z,101530.09
2018-12-05T14:31:05.858Z,101530.44
2018-12-05T14:33:31.821Z,101526.82
2018-12-05T14:35:57.790Z,101515.58
2018-12-05T14:38:23.758Z,101514.27
2018-12-05T14:40:49.759Z,101501.75
2018-12-05T14:43:15.706Z,101499.26
2018-12-05T14:45:41.669Z,101490.63
2018-12-05T14:48:07.622Z,101496.13
2018-12-05T14:50:33.711Z,101488.22
2018-12-05T14:52:59.741Z,101490.02
2018-12-05T14:55:25.694Z,101485.34
2018-12-05T14:57:51.664Z,101482.70
2018-12-05T15:00:17.627Z,101485.34
2018-12-05T15:02:43.603Z,101480.78
2018-12-05T15:05:09.565Z,101483.77
2018-12-05T15:07:35.523Z,101482.45
2018-12-05T15:10:01.498Z,101471.77
2018-12-05T15:12:27.458Z,101469.36
2018-12-05T15:14:53.451Z,101468.05
2018-12-05T15:17:19.448Z,101460.35
2018-12-05T15:19:45.398Z,101458.31
2018-12-05T15:22:11.376Z,101449.80
2018-12-05T15:24:37.334Z,101449.91
2018-12-05T15:27:03.291Z,101451.45
2018-12-05T15:29:29.266Z,101448.97
2018-12-05T15:31:55.361Z,101433.25
2018-12-05T15:34:21.309Z,101431.59
2018-12-05T15:36:47.292Z,101420.31
2018-12-05T15:39:13.254Z,101419.60
2018-12-05T15:41:39.243Z,101417.94
2018-12-05T15:44:05.182Z,101411.12
2018-12-05T15:46:31.166Z,101406.67
2018-12-05T15:48:57.150Z,101409.31
2018-12-05T15:51:23.110Z,101404.75
2018-12-05T15:53:49.057Z,101397.29
2018-12-05T15:56:15.040Z,101387.59
2018-12-05T15:58:41.015Z,101375.01
2018-12-05T16:01:06.967Z,101374.86
2018-12-05T16:03:32.952Z,101370.22
2018-12-05T16:05:58.893Z,101361.33
2018-12-05T16:08:24.888Z,101359.89
2018-12-05T16:10:50.842Z,101365.17
2018-12-05T16:13:16.793Z,101355.93
2018-12-05T16:15:42.751Z,101358.08
2018-12-05T16:18:08.706Z,101354.46
2018-12-05T16:20:34.674Z,101343.41
2018-12-05T16:23:00.621Z,101345.83
2018-12-05T16:25:26.589Z,101346.70
2018-12-05T16:27:52.554Z,101340.44
2018-12-05T16:30:18.626Z,101341.76
2018-12-05T16:32:44.652Z,101348.70
2018-12-05T16:35:10.851Z,101341.27
2018-12-05T16:37:36.827Z,101334.18
2018-12-05T16:40:02.797Z,101328.08
2018-12-05T16:42:28.767Z,101332.41
2018-12-05T16:44:54.760Z,101318.01
2018-12-05T16:47:20.730Z,101312.63
2018-12-05T16:49:46.747Z,101316.81
2018-12-05T16:52:12.800Z,101313.00
2018-12-05T16:54:38.757Z,101316.47
2018-12-05T16:57:04.743Z,101312.63
2018-12-05T16:59:30.710Z,101318.28
2018-12-05T17:01:56.673Z,101324.39
2018-12-05T17:04:22.672Z,101320.91
2018-12-05T17:06:48.865Z,101325.58
2018-12-05T17:09:14.872Z,101314.05
2018-12-05T17:11:40.958Z,101321.97
2018-12-05T17:14:06.999Z,101318.34
2018-12-05T17:16:32.940Z,101313.22
2018-12-05T17:18:59.017Z,101309.60
2018-12-05T17:21:24.994Z,101303.00
2018-12-05T17:23:50.959Z,101301.69
2018-12-05T17:26:16.938Z,101299.88
2018-12-05T17:28:42.916Z,101298.92
2018-12-05T17:31:08.911Z,101301.08
2018-12-05T17:33:34.986Z,101296.41
2018-12-05T17:36:00.955Z,101294.97
2018-12-05T17:38:26.994Z,101295.09
2018-12-05T17:40:52.970Z,101291.84
2018-12-05T17:43:18.994Z,101292.94
2018-12-05T17:45:45.051Z,101274.47
2018-12-05T17:48:11.054Z,101272.17
2018-12-05T17:50:37.023Z,101264.95
2018-12-05T17:53:03.008Z,101267.97
2018-12-05T17:55:28.958Z,101251.77
2018-12-05T17:57:54.946Z,101233.91
2018-12-05T18:00:20.890Z,101228.08
2018-12-05T18:02:46.871Z,101224.00
2018-12-05T18:05:12.817Z,101220.50
2018-12-05T18:07:38.793Z,101209.48
2018-12-05T18:10:04.751Z,101197.39
2018-12-05T18:12:30.710Z,101204.33
2018-12-05T18:14:56.695Z,101217.61
2018-12-05T18:17:22.662Z,101217.24
2018-12-05T18:19:48.615Z,101204.20
2018-12-05T18:22:14.656Z,101214.27
2018-12-05T18:24:40.649Z,101214.11
2018-12-05T18:27:06.619Z,101211.84
2018-12-05T18:29:32.715Z,101203.56
2018-12-05T18:31:58.675Z,101199.14
2018-12-05T18:34:24.670Z,101194.33
2018-12-05T18:36:50.655Z,101186.41
2018-12-05T18:39:16.682Z,101185.58
2018-12-05T18:41:42.633Z,101186.90
2018-12-05T18:44:08.616Z,101184.14
2018-12-05T18:46:34.600Z,101182.94
2018-12-05T18:49:00.555Z,101179.47
2018-12-05T18:51:26.542Z,101176.02
2018-12-05T18:53:52.514Z,101166.98
2018-12-05T18:56:18.475Z,101161.34
2018-12-05T18:58:44.425Z,101165.45
2018-12-05T19:01:10.526Z,101151.77
2018-12-05T19:03:36.513Z,101139.34
2018-12-05T19:06:02.478Z,101142.32
2018-12-05T19:08:34.327Z,101138.48
2018-12-05T19:10:56.447Z,101134.53
2018-12-05T19:13:22.406Z,101144.12
2018-12-05T19:15:48.399Z,101134.12
2018-12-05T19:18:14.861Z,101128.30
2018-12-05T19:20:40.867Z,101128.79
2018-12-05T19:23:06.902Z,101119.56
2018-12-05T19:25:32.871Z,101116.27
2018-12-05T19:27:58.835Z,101110.78
2018-12-05T19:30:24.799Z,101106.36
2018-12-05T19:32:50.810Z,101090.16
2018-12-05T19:35:16.756Z,101099.28
2018-12-05T19:37:42.717Z,101095.53
2018-12-05T19:40:08.675Z,101091.57
2018-12-05T19:42:34.721Z,101086.91
2018-12-05T19:45:00.758Z,101081.02
2018-12-05T19:47:26.779Z,101085.80
2018-12-05T19:49:52.778Z,101091.41
2018-12-05T19:52:18.788Z,101079.91
2018-12-05T19:54:44.753Z,101087.83
2018-12-05T19:57:10.717Z,101081.02
2018-12-05T19:59:36.726Z,101074.05
2018-12-05T20:02:02.682Z,101086.30
2018-12-05T20:04:28.690Z,101080.53
2018-12-05T20:06:54.638Z,101081.35
2018-12-05T20:09:20.634Z,101083.66
2018-12-05T20:11:46.617Z,101082.34
2018-12-05T20:14:12.641Z,101082.83
2018-12-05T20:16:38.617Z,101087.41
2018-12-05T20:19:04.590Z,101087.25
2018-12-05T20:21:30.571Z,101099.48
2018-12-05T20:23:56.553Z,101091.36
2018-12-05T20:26:22.503Z,101085.59
2018-12-05T20:28:48.568Z,101081.42
2018-12-05T20:31:14.523Z,101076.64
2018-12-05T20:33:40.521Z,101076.48
2018-12-05T20:36:06.499Z,101070.17
2018-12-05T20:38:32.473Z,101070.53
2018-12-05T20:40:58.454Z,101066.58
2018-12-05T20:43:24.435Z,101061.97
2018-12-05T20:45:50.422Z,101059.00
2018-12-05T20:48:16.380Z,101060.31
2018-12-05T20:50:42.374Z,101048.94
2018-12-05T20:53:08.394Z,101049.06
2018-12-05T20:55:34.399Z,101042.25
2018-12-05T20:58:00.362Z,101047.41
2018-12-05T21:00:26.436Z,101046.70
2018-12-05T21:02:52.458Z,101043.08
2018-12-05T21:05:18.423Z,101040.94
2018-12-05T21:07:44.391Z,101041.77
2018-12-05T21:10:10.376Z,101045.72
2018-12-05T21:12:37.387Z,101042.75
2018-12-05T21:15:03.341Z,101043.94
2018-12-05T21:17:29.335Z,101051.86
2018-12-05T21:19:55.306Z,101056.64
2018-12-05T21:22:21.301Z,101054.00
2018-12-05T21:24:47.263Z,101061.42
2018-12-05T21:27:46.576Z,101056.64
2018-12-05T21:30:12.572Z,101048.23
2018-12-05T21:32:38.527Z,101048.23
2018-12-05T21:35:04.517Z,101046.42
2018-12-05T21:37:30.474Z,101037.81
2018-12-05T21:39:57.188Z,101033.52
2018-12-05T21:42:23.181Z,101024.91
2018-12-05T21:44:49.143Z,101021.28
2018-12-05T21:47:15.112Z,101009.20
2018-12-05T21:49:41.061Z,101007.21
2018-12-05T21:52:07.106Z,100997.61
2018-12-05T21:54:33.075Z,101005.52
2018-12-05T21:56:59.055Z,101009.48
2018-12-05T21:59:25.026Z,101013.31
2018-12-05T22:01:51.030Z,101010.67
2018-12-05T22:04:16.974Z,101005.89
2018-12-05T22:06:42.930Z,101000.45
2018-12-05T22:09:08.894Z,100999.34
2018-12-05T22:11:34.874Z,100998.73
2018-12-05T22:14:00.838Z,100999.92
2018-12-05T22:16:27.001Z,100999.09
2018-12-05T22:18:52.994Z,100992.13
2018-12-05T22:21:18.951Z,100983.72
2018-12-05T22:23:44.923Z,100983.89
2018-12-05T22:26:10.902Z,100981.58
2018-12-05T22:28:36.868Z,100978.61
2018-12-05T22:31:02.814Z,100979.44
2018-12-05T22:33:28.775Z,100977.91
2018-12-05T22:35:54.763Z,100975.61
2018-12-05T22:38:20.751Z,100979.36
2018-12-05T22:40:46.786Z,100979.36
2018-12-05T22:43:12.798Z,100971.59
2018-12-05T22:45:38.763Z,100968.47
2018-12-05T22:48:04.942Z,100955.28
2018-12-05T22:50:30.916Z,100957.09
2018-12-05T22:52:56.913Z,100962.20
2018-12-05T22:55:22.862Z,100955.33
2018-12-05T22:57:49.030Z,100957.84
2018-12-05T23:00:15.001Z,100950.29
2018-12-05T23:02:41.059Z,100943.20
2018-12-05T23:05:07.008Z,100950.29
2018-12-05T23:07:33.089Z,100951.94
2018-12-05T23:09:59.071Z,100949.30
2018-12-05T23:12:25.046Z,100948.48
2018-12-05T23:14:51.025Z,100943.20
2018-12-05T23:17:16.972Z,100942.37
2018-12-05T23:19:42.950Z,100938.05
2018-12-05T23:22:08.985Z,100930.76
2018-12-05T23:24:34.978Z,100929.11
2018-12-05T23:27:00.946Z,100932.57
2018-12-05T23:29:27.040Z,100932.57
2018-12-05T23:31:52.999Z,100932.23
2018-12-05T23:34:18.958Z,100932.23
2018-12-05T23:36:44.911Z,100931.87
2018-12-05T23:39:10.865Z,100930.92
2018-12-05T23:41:36.952Z,100931.25
2018-12-05T23:44:03.027Z,100920.37
2018-12-05T23:46:29.324Z,100923.67
2018-12-05T23:48:55.297Z,100924.03
2018-12-05T23:51:21.281Z,100911.67
2018-12-05T23:53:47.239Z,100912.16
2018-12-05T23:56:13.214Z,100907.22
2018-12-05T23:58:39.163Z,100914.67
